Terminal Aerodrome Forecast
Issued by NWS

Home | Current Version | Previous Version | Text Only | Print | Product List | Glossary On
Versions: 1 2 3 4 5 6 7 8 9 10 11 12 13 14
000
FTUS42 TJSJ 241406 AAA
TAFNCM
TAF AMD
TNCM 241406Z 2414/2512 10012KT P6SM VCSH SCT020
      TEMPO 2414/2416 BKN018=

USA.gov is the U.S. government's official web portal to all federal, state and local government web resources and services.